Strona główna
METAR-TAF:

METAR-TAF

Lotnisko :

Port lotniczy Bardufoss

Bardufoss, Norwegia

Szerokość geograficzna: 69-04N, Długość geograficzna: 018-32E, wysokość: 7 m

Aktualna obserwacja pogody

Raport powstał 26 minut temu, godzina 23:50 UTC
Wiatr 1 kt z kierunków zmiennych
Temperatura -2°C
Wilgotność 80%
Ciśnienie 1026 hPa
Widzialność 10 km lub więcej

METAR: ENDU 182350Z AUTO VRB01KT 9999 NCD M02/M05 Q1026 RMK WIND 1100FT VRB05KT WIND 2200FT 21025KT

czas: 02:16 (00:16 UTC)

Prognoza

Prognoza ważna od 19 godzina 00 UTC do 19 godzina 24 UTC
Wiatr 8 kt od południe
Widzialność 10 km lub więcej
Brak chmur poniżej 1500 m i brak chmur cumulonimbus

TAF: ENDU 1900/1924 19008KT CAVOK

Obserwacja i prognoza pogody dla ponad 4000 lotnisk (raport METAR i TAF).

Dostępne stacje oznaczono żółtymi i czerwonymi punktami na mapie.

Najedź kursorem aby zobaczyć nazwę stacji.

Kliknij aby zobaczyć obserwacje i prognozy pogody.

Aby zmienić mapę: kliknij na zielony przycisk z czarnym krzyżykiem, aby powiększyć; na zielony przycisk z myślnikiem, aby pomniejszyć; na zielone strzałki, aby przejść do map sąsiednich.


METAR-TAF: